Time;durP1;ratioP1;P1;durP2;ratioP2;P2;SDS_P1;SDS_P2;PMS_P1;PMS_P2;Temp;Humidity;BMP_temperature;BMP_pressure;BME280_temperature;BME280_humidity;BME280_pressure;Samples;Min_cycle;Max_cycle;Signal;HPM_P1;HPM_P2
2021/07/28 00:00:25;;;;;;;3.03;2.92;;;19.10;99.90;;;19.41;82.02;100818.56;4936127;29;20047;-73
2021/07/28 00:02:53;;;;;;;2.53;2.42;;;19.10;99.90;;;19.34;81.63;100801.84;4918991;29;20044;-74
2021/07/28 00:05:22;;;;;;;2.38;2.28;;;19.20;99.90;;;19.50;81.54;100818.19;4935977;29;20044;-73
2021/07/28 00:07:51;;;;;;;3.30;3.20;;;19.20;99.90;;;19.50;81.45;100813.69;4918786;29;20533;-73
2021/07/28 00:10:20;;;;;;;2.60;2.50;;;19.30;99.90;;;19.52;81.45;100817.19;4918894;29;20051;-73
2021/07/28 00:12:49;;;;;;;2.70;2.60;;;19.20;99.90;;;19.55;81.47;100811.69;4935830;29;20043;-73
2021/07/28 00:15:18;;;;;;;2.70;2.60;;;19.30;99.90;;;18.93;81.31;100703.41;4918907;29;20052;-73
2021/07/28 00:17:49;;;;;;;2.70;2.60;;;19.30;99.90;;;19.40;81.31;100785.50;4936040;29;20287;-73
2021/07/28 00:20:24;;;;;;;2.92;2.83;;;19.30;99.90;;;19.31;81.10;100782.28;4935640;29;20493;-73
2021/07/28 00:25:38;;;;;;;2.90;2.80;;;19.10;99.90;;;19.43;81.36;100808.66;4935813;29;20052;-73
2021/07/28 00:28:08;;;;;;;2.63;2.53;;;19.20;99.90;;;19.32;81.56;100792.06;4935693;29;20048;-73
2021/07/28 00:30:37;;;;;;;2.70;2.60;;;19.10;99.90;;;19.24;81.80;100778.13;4935796;29;20056;-73
2021/07/28 00:33:05;;;;;;;2.83;2.72;;;19.10;99.90;;;19.26;82.15;100779.78;4935406;29;20075;-74
2021/07/28 00:35:34;;;;;;;4.80;4.50;;;19.10;99.90;;;19.35;82.57;100798.25;4935581;29;20142;-73
2021/07/28 00:38:04;;;;;;;3.45;3.25;;;19.10;99.90;;;19.29;82.55;100765.38;4918568;29;20044;-73
2021/07/28 00:40:33;;;;;;;2.75;2.65;;;19.10;99.90;;;19.30;82.92;100785.94;4935610;29;20044;-73
2021/07/28 00:43:16;;;;;;;3.05;2.95;;;19.10;99.90;;;19.39;83.25;100798.97;4935716;29;20073;-74
2021/07/28 00:45:45;;;;;;;3.35;3.22;;;19.10;99.90;;;19.32;83.48;100794.75;4935636;29;20066;-73
2021/07/28 00:48:15;;;;;;;3.47;3.28;;;19.10;99.90;;;19.35;83.65;100789.31;4935567;29;20059;-73
2021/07/28 00:50:45;;;;;;;3.15;2.95;;;19.10;99.90;;;19.26;83.75;100778.94;4938772;29;20110;-73
2021/07/28 00:53:18;;;;;;;3.33;3.22;;;19.00;99.90;;;18.86;83.84;100712.66;4938687;29;20050;-68
2021/07/28 00:55:48;;;;;;;2.90;2.80;;;19.00;99.90;;;19.15;84.33;100783.84;4938883;29;20051;-67
2021/07/28 00:58:19;;;;;;;2.92;2.83;;;18.90;99.90;;;19.19;84.41;100770.25;4938913;29;20051;-67
2021/07/28 01:00:48;;;;;;;5.10;4.70;;;19.00;99.90;;;19.09;84.70;100779.63;4939154;29;20047;-67
2021/07/28 01:03:17;;;;;;;3.55;3.30;;;18.90;99.90;;;19.16;84.72;100769.53;4938591;29;20091;-67
2021/07/28 01:05:45;;;;;;;2.80;2.70;;;18.90;99.90;;;18.43;85.48;100684.03;4938558;29;20083;-67
2021/07/28 01:08:15;;;;;;;3.33;3.13;;;18.80;99.90;;;19.00;85.71;100777.31;4938765;29;20050;-67
2021/07/28 01:10:46;;;;;;;4.57;4.20;;;18.80;99.90;;;18.87;86.18;100774.22;4939013;29;20051;-67
2021/07/28 01:13:26;;;;;;;4.35;4.05;;;18.70;99.90;;;18.90;86.37;100760.72;4938717;29;20047;-68
2021/07/28 01:16:02;;;;;;;3.03;2.92;;;18.80;99.90;;;18.75;86.99;100736.34;4938650;29;20040;-68
2021/07/28 01:18:31;;;;;;;2.63;2.53;;;18.70;99.90;;;18.91;87.12;100765.13;4938558;29;20075;-68
2021/07/28 01:21:00;;;;;;;4.22;3.92;;;18.70;99.90;;;18.90;87.19;100763.41;4938461;29;20115;-67
2021/07/28 01:23:31;;;;;;;2.47;2.38;;;18.70;99.90;;;18.99;87.26;100764.81;4938478;29;20406;-67
2021/07/28 01:26:02;;;;;;;3.58;3.38;;;18.80;99.90;;;18.83;87.75;100756.53;4921332;29;20052;-67
2021/07/28 01:28:33;;;;;;;3.53;3.33;;;18.70;99.90;;;18.75;88.34;100756.00;4921416;29;20055;-68
2021/07/28 01:31:04;;;;;;;2.60;2.50;;;18.60;99.90;;;18.76;88.61;100765.75;4938356;29;20140;-67
2021/07/28 01:33:36;;;;;;;4.10;3.90;;;18.60;99.90;;;18.65;88.82;100754.59;4938147;29;20508;-67
2021/07/28 01:36:07;;;;;;;2.42;2.33;;;18.60;99.90;;;18.69;89.18;100752.66;4938461;29;20059;-67
2021/07/28 01:38:37;;;;;;;3.65;3.45;;;18.60;99.90;;;18.82;88.94;100765.53;4921150;29;20055;-68
2021/07/28 01:41:08;;;;;;;3.38;3.22;;;18.60;99.90;;;18.82;88.75;100740.50;4937950;29;20496;-67
2021/07/28 01:43:37;;;;;;;2.60;2.50;;;18.60;99.90;;;18.84;88.87;100749.38;4937856;29;20051;-67
2021/07/28 01:46:07;;;;;;;3.13;2.95;;;18.60;99.90;;;18.78;88.83;100750.50;4937844;29;20557;-67
2021/07/28 01:48:36;;;;;;;2.55;2.45;;;18.60;99.90;;;18.67;88.72;100730.41;4938171;29;20067;-67
2021/07/28 01:51:04;;;;;;;2.67;2.58;;;18.60;99.90;;;18.83;88.71;100742.28;4937991;29;20052;-68
2021/07/28 01:53:33;;;;;;;2.75;2.65;;;18.60;99.90;;;18.88;88.64;100742.94;4937856;29;20081;-68
2021/07/28 01:56:03;;;;;;;2.53;2.42;;;18.60;99.90;;;18.90;88.32;100739.28;4920829;29;20157;-67
2021/07/28 01:58:34;;;;;;;3.38;3.03;;;18.70;99.90;;;18.89;88.19;100739.34;4920850;29;20063;-67
2021/07/28 02:01:03;;;;;;;3.67;3.47;;;18.70;99.90;;;18.88;88.26;100738.47;4937398;29;20092;-67
2021/07/28 02:03:32;;;;;;;3.47;3.22;;;18.70;99.90;;;18.88;88.30;100733.09;4937733;29;20055;-67
2021/07/28 02:06:00;;;;;;;3.55;3.35;;;18.70;99.90;;;19.01;88.38;100729.94;4937646;29;20055;-67
2021/07/28 02:08:29;;;;;;;3.55;3.35;;;18.70;99.90;;;19.03;88.38;100731.59;4937489;29;20052;-68
2021/07/28 02:10:59;;;;;;;2.80;2.70;;;18.80;99.90;;;19.05;88.02;100729.72;4937740;29;20054;-68
2021/07/28 02:13:28;;;;;;;2.40;2.30;;;18.80;99.90;;;19.03;87.92;100730.75;4937557;29;20099;-67
2021/07/28 02:15:57;;;;;;;3.22;3.13;;;18.80;99.90;;;19.04;87.99;100735.16;4937477;29;20387;-67
2021/07/28 02:18:25;;;;;;;3.30;3.00;;;18.80;99.90;;;19.09;87.86;100738.50;4937623;29;20063;-67
2021/07/28 02:20:54;;;;;;;5.47;4.70;;;18.90;99.90;;;19.11;87.73;100728.59;4937307;29;20498;-69
2021/07/28 02:23:22;;;;;;;3.03;2.92;;;18.90;99.90;;;19.12;87.58;100736.59;4937127;29;20068;-67
2021/07/28 02:25:51;;;;;;;2.97;2.88;;;18.90;99.90;;;19.05;88.05;100731.56;4937353;29;20060;-67
2021/07/28 02:28:20;;;;;;;4.30;3.50;;;18.90;99.90;;;18.96;87.98;100714.03;4937394;29;20138;-67
2021/07/28 02:30:49;;;;;;;2.90;2.80;;;18.80;99.90;;;19.09;88.53;100733.16;4937026;29;20138;-67
2021/07/28 02:33:18;;;;;;;3.30;3.20;;;18.80;99.90;;;19.10;88.69;100732.22;4937016;29;20402;-67
2021/07/28 02:35:46;;;;;;;4.10;3.80;;;18.80;99.90;;;19.11;89.02;100737.53;4936905;29;20698;-69
2021/07/28 02:38:19;;;;;;;3.58;3.38;;;18.90;99.90;;;19.07;89.13;100733.22;4919890;29;20102;-67
2021/07/28 02:40:47;;;;;;;3.35;3.15;;;18.90;99.90;;;19.03;89.55;100723.56;4936804;29;20498;-67
2021/07/28 02:43:16;;;;;;;4.13;3.92;;;18.80;99.90;;;19.05;89.66;100728.88;4937114;29;20052;-69
2021/07/28 02:45:44;;;;;;;7.50;4.22;;;18.80;99.90;;;19.02;89.51;100737.03;4937248;29;20508;-67
2021/07/28 02:48:14;;;;;;;3.42;3.22;;;18.80;99.90;;;19.04;89.59;100732.47;4937309;29;20398;-67
2021/07/28 02:50:42;;;;;;;3.92;3.72;;;18.80;99.90;;;18.98;89.99;100733.59;4936974;29;20434;-67
2021/07/28 02:53:11;;;;;;;3.45;3.17;;;18.80;99.90;;;19.06;90.17;100726.13;4919950;29;20593;-67
2021/07/28 02:55:39;;;;;;;3.83;3.63;;;18.80;99.90;;;19.09;90.03;100735.81;4936822;29;20071;-68
2021/07/28 02:58:08;;;;;;;3.20;3.10;;;18.80;99.90;;;19.10;90.17;100732.22;4919887;29;20103;-68
2021/07/28 03:00:36;;;;;;;3.63;3.35;;;18.80;99.90;;;19.16;89.95;100738.22;4937030;29;20098;-68
2021/07/28 03:03:05;;;;;;;4.85;4.55;;;18.90;99.90;;;19.16;89.84;100731.97;4919534;29;20047;-68
2021/07/28 03:05:35;;;;;;;3.03;2.92;;;18.90;99.90;;;19.08;89.66;100708.16;4936374;29;20505;-68
2021/07/28 03:08:03;;;;;;;3.77;3.57;;;18.90;99.90;;;19.16;89.72;100732.84;4936378;29;20050;-68
2021/07/28 03:10:32;;;;;;;4.32;3.95;;;18.90;99.90;;;19.18;89.47;100724.75;4936710;29;20295;-68
2021/07/28 03:13:00;;;;;;;4.18;3.92;;;18.90;99.90;;;19.15;89.40;100719.50;4936512;29;20127;-67
2021/07/28 03:15:29;;;;;;;4.60;4.30;;;18.90;99.90;;;19.21;89.24;100729.97;4936257;29;20481;-68
2021/07/28 03:17:57;;;;;;;4.90;4.60;;;18.90;99.90;;;19.23;89.11;100733.44;4919390;29;20052;-67
2021/07/28 03:20:25;;;;;;;5.00;4.63;;;18.90;99.90;;;19.18;89.15;100714.00;4936409;29;20056;-67
2021/07/28 03:22:55;;;;;;;11.55;5.00;;;18.90;99.90;;;19.22;89.28;100727.22;4919491;29;20106;-68
2021/07/28 03:25:24;;;;;;;4.28;3.97;;;18.90;99.90;;;19.25;89.25;100727.09;4937045;29;20565;-68
2021/07/28 03:27:52;;;;;;;3.55;3.45;;;19.00;99.90;;;19.19;89.18;100721.09;4936214;29;20075;-67
2021/07/28 03:30:21;;;;;;;3.35;3.22;;;18.90;99.90;;;19.24;89.10;100724.50;4919178;29;20465;-68
2021/07/28 03:32:49;;;;;;;5.13;3.53;;;19.00;99.90;;;19.22;88.74;100721.84;4936202;29;20371;-68
2021/07/28 03:35:18;;;;;;;3.38;3.28;;;19.00;99.90;;;19.25;88.74;100718.16;4935955;29;20075;-68
2021/07/28 03:37:46;;;;;;;3.40;3.25;;;19.00;99.90;;;19.30;88.69;100722.41;4935928;29;20565;-68
2021/07/28 03:40:17;;;;;;;3.00;2.90;;;19.00;99.90;;;19.35;88.54;100716.88;4919150;29;20111;-69
2021/07/28 03:42:47;;;;;;;3.83;3.65;;;19.10;99.90;;;19.35;88.09;100715.09;4919336;29;20044;-69
2021/07/28 03:45:16;;;;;;;;;;;19.10;99.90;;;19.29;87.85;100711.75;4936354;29;20038;-68
2021/07/28 03:47:44;;;;;;;3.45;3.35;;;19.00;99.90;;;19.29;87.79;100707.25;4936307;29;19962;-68
2021/07/28 03:50:13;;;;;;;2.88;2.78;;;19.00;99.90;;;19.11;87.52;100675.84;4936189;29;20102;-68
2021/07/28 03:52:41;;;;;;;3.28;3.08;;;19.00;99.90;;;19.23;87.21;100712.88;4936196;29;20146;-68
2021/07/28 03:55:12;;;;;;;3.15;3.03;;;19.00;99.90;;;19.28;87.05;100715.38;4919083;29;20048;-67
2021/07/28 03:57:41;;;;;;;3.60;3.40;;;19.00;99.90;;;18.77;86.97;100628.16;4919050;29;20063;-67
2021/07/28 04:00:11;;;;;;;3.40;3.20;;;19.00;99.90;;;19.24;86.93;100724.50;4936188;29;20130;-68
2021/07/28 04:02:40;;;;;;;4.32;4.10;;;18.90;99.90;;;19.04;87.06;100697.63;4936100;29;20389;-67
2021/07/28 04:05:10;;;;;;;3.20;3.00;;;19.00;99.90;;;19.24;87.07;100709.25;4936273;29;20048;-67
2021/07/28 04:07:38;;;;;;;3.67;3.47;;;19.00;99.90;;;19.27;87.15;100727.03;4936072;29;20051;-67
2021/07/28 04:10:08;;;;;;;3.75;3.45;;;19.00;99.90;;;19.28;87.16;100724.28;4935898;29;20055;-68
2021/07/28 04:12:37;;;;;;;3.35;3.25;;;19.00;99.90;;;19.27;87.40;100719.88;4935809;29;20047;-63
2021/07/28 04:15:08;;;;;;;4.70;3.08;;;19.00;99.90;;;19.20;87.34;100709.47;4919047;29;20048;-67
2021/07/28 04:17:36;;;;;;;3.15;3.05;;;19.00;99.90;;;19.27;87.22;100710.94;4935663;29;20471;-66
2021/07/28 04:20:06;;;;;;;3.13;3.00;;;19.00;99.90;;;19.22;87.04;100718.31;4935436;29;20502;-67
2021/07/28 04:22:35;;;;;;;5.63;4.38;;;19.00;99.90;;;19.24;87.01;100724.50;4935558;29;20047;-67
2021/07/28 04:25:05;;;;;;;3.60;3.40;;;19.00;99.90;;;19.21;86.83;100722.78;4938030;29;20505;-68
2021/07/28 04:27:33;;;;;;;3.30;3.10;;;19.00;99.90;;;19.14;86.89;100733.84;4939225;29;20486;-69
2021/07/28 04:30:02;;;;;;;6.75;5.57;;;18.90;99.90;;;18.96;87.12;100697.94;4922037;29;20059;-68
2021/07/28 04:32:32;;;;;;;3.70;3.50;;;18.80;99.90;;;18.68;87.14;100649.97;4938896;29;20051;-69
2021/07/28 04:35:01;;;;;;;3.15;3.05;;;18.80;99.90;;;19.13;87.04;100716.88;4939320;29;20480;-68
2021/07/28 04:37:29;;;;;;;4.15;3.92;;;18.90;99.90;;;19.02;87.04;100719.13;4939296;29;20040;-70
2021/07/28 04:40:01;;;;;;;3.13;3.03;;;18.80;99.90;;;19.09;87.24;100725.09;4922111;29;20047;-68
2021/07/28 04:42:30;;;;;;;4.20;3.90;;;18.80;99.90;;;19.01;87.10;100754.91;4939300;29;20051;-69
2021/07/28 04:44:59;;;;;;;3.13;3.03;;;18.80;99.90;;;19.02;87.00;100723.63;4939144;29;20048;-68
2021/07/28 04:47:30;;;;;;;3.03;2.92;;;18.70;99.90;;;19.01;87.07;100724.56;4921954;29;20056;-68
2021/07/28 04:49:59;;;;;;;3.67;3.53;;;18.70;99.90;;;19.06;86.94;100718.09;4922265;29;20047;-69
2021/07/28 04:52:28;;;;;;;3.35;3.15;;;18.80;99.90;;;18.98;86.69;100719.31;4939016;29;20051;-68
2021/07/28 04:54:56;;;;;;;3.83;3.63;;;18.70;99.90;;;18.97;86.78;100713.06;4921745;29;20454;-68
2021/07/28 04:57:25;;;;;;;8.40;6.57;;;18.70;99.90;;;18.93;86.52;100711.47;4921800;29;20056;-68
2021/07/28 04:59:54;;;;;;;4.03;3.83;;;18.70;99.90;;;19.00;86.41;100720.13;4938876;29;20051;-68
2021/07/28 05:02:25;;;;;;;3.15;3.05;;;18.70;99.90;;;19.00;86.43;100721.00;4938905;29;20051;-69
2021/07/28 05:04:55;;;;;;;2.95;2.85;;;18.70;99.90;;;19.08;86.30;100715.34;4938784;29;20553;-69
2021/07/28 05:07:23;;;;;;;3.70;3.50;;;18.80;99.90;;;18.92;86.22;100690.97;4938879;29;20043;-68
2021/07/28 05:09:53;;;;;;;3.33;3.22;;;18.80;99.90;;;18.97;86.36;100706.88;4938885;29;20294;-68
2021/07/28 05:12:21;;;;;;;3.53;3.38;;;18.70;99.90;;;19.03;86.34;100712.81;4938549;29;20458;-70
2021/07/28 05:14:50;;;;;;;3.20;3.10;;;18.80;99.90;;;19.04;86.56;100714.59;4921521;29;20150;-68
2021/07/28 05:17:20;;;;;;;3.03;2.88;;;18.70;99.90;;;18.95;86.39;100700.69;4938635;29;20048;-69
2021/07/28 05:19:48;;;;;;;4.13;3.83;;;18.80;99.90;;;18.99;86.57;100707.69;4938664;29;20478;-69
2021/07/28 05:22:18;;;;;;;4.30;4.10;;;18.70;99.90;;;18.97;86.46;100709.56;4938214;29;20047;-70
2021/07/28 05:24:47;;;;;;;3.85;3.10;;;18.70;99.90;;;18.98;86.75;100725.56;4938475;29;20056;-68
2021/07/28 05:27:16;;;;;;;3.92;3.67;;;18.70;99.90;;;18.89;86.85;100702.66;4938300;29;20469;-69
2021/07/28 05:29:44;;;;;;;4.03;3.72;;;18.70;99.90;;;18.94;86.96;100702.50;4938008;29;20051;-69
2021/07/28 05:32:13;;;;;;;4.40;4.10;;;18.70;99.90;;;18.83;86.39;100708.28;4938697;29;20095;-71
2021/07/28 05:34:41;;;;;;;4.32;4.03;;;18.60;99.90;;;18.81;87.07;100707.47;4937643;29;20047;-69
2021/07/28 05:37:10;;;;;;;5.35;4.85;;;18.60;99.90;;;18.83;87.06;100724.38;4937628;29;20062;-70
2021/07/28 05:39:39;;;;;;;3.22;3.13;;;18.60;99.90;;;18.90;87.07;100711.59;4938232;29;20446;-70
2021/07/28 05:42:08;;;;;;;3.83;3.63;;;18.60;99.90;;;18.75;86.62;100699.72;4920960;29;20110;-69
2021/07/28 05:44:37;;;;;;;4.15;3.75;;;18.60;99.90;;;18.84;86.78;100704.69;4938009;29;20080;-69
2021/07/28 05:47:06;;;;;;;4.00;3.78;;;18.60;99.90;;;18.88;86.89;100709.00;4937753;29;20431;-70
2021/07/28 05:49:35;;;;;;;3.83;3.53;;;18.60;99.90;;;18.95;87.38;100703.38;4937887;29;20103;-70
2021/07/28 05:52:04;;;;;;;4.25;3.75;;;18.70;99.90;;;18.92;87.12;100733.84;4937865;29;20051;-70
2021/07/28 05:54:32;;;;;;;3.05;2.95;;;18.70;99.90;;;18.93;86.58;100708.78;4920838;29;20461;-69
2021/07/28 05:57:02;;;;;;;3.38;3.17;;;18.70;99.90;;;18.93;86.50;100712.34;4937405;29;20079;-69
2021/07/28 05:59:31;;;;;;;3.65;3.35;;;18.70;99.90;;;18.92;86.01;100707.03;4937641;29;20130;-69
2021/07/28 06:01:59;;;;;;;2.88;2.72;;;18.70;99.90;;;18.97;85.99;100704.19;4938145;29;20138;-70
2021/07/28 06:04:28;;;;;;;3.65;3.45;;;18.70;99.90;;;18.93;86.25;100712.34;4937398;29;20450;-69
2021/07/28 06:06:57;;;;;;;3.47;3.38;;;18.70;99.90;;;18.99;86.11;100702.31;4937484;29;20048;-70
2021/07/28 06:09:25;;;;;;;3.20;3.10;;;18.80;99.90;;;18.93;86.16;100704.28;4937410;29;20138;-70
2021/07/28 06:11:54;;;;;;;3.22;3.03;;;18.80;99.90;;;18.99;85.82;100696.97;4937552;29;20052;-70
2021/07/28 06:14:23;;;;;;;4.05;3.72;;;18.70;99.90;;;19.01;85.85;100705.81;4937393;29;20050;-70
2021/07/28 06:16:53;;;;;;;3.70;3.50;;;18.80;99.90;;;19.03;85.60;100714.66;4937240;29;20055;-71
2021/07/28 06:19:21;;;;;;;3.40;3.20;;;18.80;99.90;;;19.02;85.38;100704.84;4937690;29;20325;-70
2021/07/28 06:21:50;;;;;;;3.03;2.92;;;18.70;99.90;;;19.10;85.62;100710.78;4937459;29;20047;-69
2021/07/28 06:24:18;;;;;;;3.22;3.03;;;18.80;99.90;;;19.00;85.42;100710.28;4920284;29;20582;-69
2021/07/28 06:26:47;;;;;;;3.85;3.65;;;18.80;99.90;;;18.95;85.51;100703.38;4937339;29;20494;-71
2021/07/28 06:29:15;;;;;;;4.07;3.78;;;18.70;99.90;;;18.90;85.69;100716.97;4920614;29;20051;-69
2021/07/28 06:31:45;;;;;;;15.35;4.30;;;18.70;99.90;;;18.92;85.81;100707.94;4937392;29;20067;-68
2021/07/28 06:34:14;;;;;;;3.88;3.67;;;18.70;99.90;;;18.93;85.95;100708.78;4936795;29;20067;-70
2021/07/28 06:36:42;;;;;;;3.35;3.25;;;18.70;99.90;;;18.86;86.39;100710.84;4937050;29;20075;-68
2021/07/28 06:39:11;;;;;;;4.32;4.03;;;18.60;99.90;;;18.89;86.42;100694.63;4936921;29;20052;-76
2021/07/28 06:41:39;;;;;;;4.10;3.80;;;18.70;99.90;;;18.92;86.19;100697.22;4920259;29;20154;-77
2021/07/28 06:44:08;;;;;;;3.85;3.65;;;18.70;99.90;;;18.86;86.20;100707.28;4936820;29;20148;-75
2021/07/28 06:46:36;;;;;;;4.60;4.18;;;18.60;99.90;;;18.91;86.50;100695.44;4936218;29;20043;-74
2021/07/28 06:49:06;;;;;;;31.90;6.88;;;18.70;99.90;;;18.90;86.32;100712.47;4936845;29;20087;-73
2021/07/28 06:51:35;;;;;;;3.85;3.63;;;18.60;99.90;;;18.92;86.26;100707.94;4937354;29;20051;-76
2021/07/28 06:54:03;;;;;;;5.05;4.65;;;18.60;99.90;;;18.95;86.39;100712.28;4936780;29;20055;-75
2021/07/28 06:56:32;;;;;;;2.92;2.83;;;18.70;99.90;;;18.99;86.51;100707.69;4936651;29;20103;-75
2021/07/28 06:59:00;;;;;;;3.92;3.63;;;18.70;99.90;;;19.03;86.61;100718.19;4919764;29;20043;-74
2021/07/28 07:01:31;;;;;;;4.18;3.83;;;18.70;99.90;;;18.99;86.28;100708.53;4936371;29;20081;-74
2021/07/28 07:03:59;;;;;;;;;;;18.80;99.90;;;19.04;85.95;100717.28;4919672;29;20060;-69
2021/07/28 07:06:29;;;;;;;3.92;3.67;;;18.80;99.90;;;19.08;85.98;100691.19;4936587;29;19923;-69
2021/07/28 07:08:58;;;;;;;4.35;3.95;;;18.80;99.90;;;19.01;85.96;100711.16;4936442;29;20056;-68
2021/07/28 07:11:26;;;;;;;3.47;3.28;;;18.80;99.90;;;18.42;85.98;100596.59;4936056;29;20560;-69
2021/07/28 07:13:55;;;;;;;3.55;3.35;;;18.80;99.90;;;19.13;85.66;100707.94;4936443;29;20086;-70
2021/07/28 07:16:24;;;;;;;3.67;3.47;;;18.80;99.90;;;18.50;85.14;100612.34;4919452;29;20047;-68
2021/07/28 07:18:53;;;;;;;3.58;3.38;;;18.90;99.90;;;19.03;85.03;100701.25;4936035;29;20075;-69
2021/07/28 07:21:22;;;;;;;4.18;3.75;;;18.80;99.90;;;19.05;85.40;100713.63;4919298;29;20075;-70
2021/07/28 07:23:54;;;;;;;3.30;3.20;;;18.80;99.90;;;19.04;85.93;100689.56;4936388;29;20044;-71
2021/07/28 07:26:22;;;;;;;4.63;4.32;;;18.80;99.90;;;19.17;84.80;100713.13;4936580;29;20051;-68
2021/07/28 07:28:51;;;;;;;3.97;3.67;;;18.90;99.90;;;19.17;85.13;100704.22;4936479;29;20052;-69
2021/07/28 07:31:19;;;;;;;3.53;3.33;;;18.90;99.90;;;19.20;85.29;100712.16;4936248;29;20577;-67
2021/07/28 07:33:48;;;;;;;3.72;3.53;;;18.90;99.90;;;19.06;85.08;100682.34;4936640;29;20044;-69
2021/07/28 07:36:18;;;;;;;3.35;3.25;;;19.00;99.90;;;19.16;84.72;100703.38;4936475;29;20090;-68
2021/07/28 07:38:48;;;;;;;4.07;3.78;;;18.90;99.90;;;19.18;84.62;100704.13;4935899;29;20525;-67
2021/07/28 07:41:18;;;;;;;4.05;3.78;;;18.90;99.90;;;19.02;84.14;100694.13;4936228;29;20131;-68
2021/07/28 07:43:47;;;;;;;5.22;4.93;;;18.90;99.90;;;19.22;84.68;100704.91;4936306;29;20051;-72
2021/07/28 07:46:15;;;;;;;3.55;3.45;;;18.90;99.90;;;19.19;84.22;100707.69;4935900;29;20089;-66
2021/07/28 07:48:44;;;;;;;4.30;3.90;;;18.90;99.90;;;19.17;84.17;100704.22;4936028;29;20062;-68
2021/07/28 07:51:12;;;;;;;4.55;3.92;;;18.90;99.90;;;19.15;84.11;100708.75;4936089;29;20122;-70
2021/07/28 07:53:41;;;;;;;3.78;3.58;;;18.90;99.90;;;19.10;84.50;100702.72;4936159;29;20056;-67
2021/07/28 07:56:09;;;;;;;7.18;4.50;;;18.90;99.90;;;19.15;84.90;100704.28;4918949;29;20058;-65
2021/07/28 07:58:39;;;;;;;3.40;3.30;;;18.90;99.90;;;18.93;85.02;100682.84;4936571;29;20051;-67
2021/07/28 08:01:08;;;;;;;5.28;4.85;;;18.90;99.90;;;18.89;85.15;100680.38;4939874;29;20047;-65
2021/07/28 08:03:37;;;;;;;3.70;3.50;;;18.80;99.90;;;18.54;84.78;100611.28;4939513;29;20135;-66
2021/07/28 08:06:06;;;;;;;3.42;3.13;;;18.80;99.90;;;19.09;84.59;100711.69;4922684;29;20405;-66
2021/07/28 08:08:35;;;;;;;5.47;4.78;;;18.80;99.90;;;19.13;84.66;100734.78;4939584;29;20079;-67
2021/07/28 08:11:08;;;;;;;3.72;3.42;;;18.90;99.90;;;19.16;84.76;100718.56;4939702;29;20047;-65
2021/07/28 08:13:39;;;;;;;4.30;4.00;;;18.90;99.90;;;19.16;84.64;100705.16;4939673;29;20114;-65
2021/07/28 08:16:12;;;;;;;4.32;4.10;;;18.90;99.90;;;19.15;84.82;100709.66;4939486;29;20048;-66
2021/07/28 08:18:41;;;;;;;3.90;3.70;;;18.90;99.90;;;19.19;84.48;100710.38;4939531;29;20044;-66
2021/07/28 08:21:11;;;;;;;3.05;2.95;;;18.90;99.90;;;19.16;84.60;100705.16;4922337;29;20051;-66
2021/07/28 08:23:41;;;;;;;4.60;4.20;;;18.90;99.90;;;19.21;84.49;100722.78;4939218;29;20052;-66
2021/07/28 08:26:10;;;;;;;6.03;4.60;;;18.90;99.90;;;19.19;84.55;100710.38;4939458;29;20098;-66
2021/07/28 08:28:40;;;;;;;4.40;4.10;;;18.90;99.90;;;19.28;84.48;100723.44;4922186;29;20414;-66
2021/07/28 08:31:09;;;;;;;4.20;3.95;;;19.00;99.90;;;19.32;84.08;100725.91;4939232;29;20059;-66
2021/07/28 08:33:37;;;;;;;3.05;2.95;;;19.00;99.90;;;19.40;84.14;100723.78;4939212;29;20056;-67
2021/07/28 08:36:06;;;;;;;5.47;4.88;;;19.10;99.90;;;19.44;83.56;100717.34;4939254;29;20043;-68
2021/07/28 08:38:34;;;;;;;3.63;3.13;;;19.20;99.90;;;19.57;83.93;100717.69;4939060;29;20059;-66
2021/07/28 08:41:03;;;;;;;3.05;2.92;;;19.30;99.90;;;19.54;83.62;100712.47;4939040;29;20055;-67
2021/07/28 08:43:34;;;;;;;5.10;4.70;;;19.30;99.90;;;19.67;83.75;100732.44;4939107;29;20052;-75
2021/07/28 08:46:06;;;;;;;9.77;5.88;;;19.30;99.90;;;19.64;83.27;100712.00;4939057;29;20067;-77
2021/07/28 08:48:36;;;;;;;52.88;31.27;;;19.40;99.90;;;19.48;82.63;100729.72;4939029;29;20078;-74
2021/07/28 08:51:06;;;;;;;4.88;4.53;;;19.30;99.90;;;19.60;83.03;100723.81;4939090;29;20055;-70
2021/07/28 08:53:35;;;;;;;3.20;3.10;;;19.30;99.90;;;19.59;83.34;100726.53;4939212;29;20071;-71
2021/07/28 08:56:04;;;;;;;7.28;4.72;;;19.30;99.90;;;19.67;82.72;100713.66;4938727;29;20470;-70
2021/07/28 08:58:33;;;;;;;4.47;4.18;;;19.40;99.90;;;19.66;82.59;100728.03;4938749;29;20047;-69
2021/07/28 09:01:01;;;;;;;4.30;3.58;;;19.40;99.90;;;19.65;82.67;100710.16;4938835;29;20075;-69
2021/07/28 09:03:32;;;;;;;4.55;3.75;;;19.40;99.90;;;19.58;82.48;100717.63;4938256;29;20120;-72
2021/07/28 09:06:01;;;;;;;4.15;3.90;;;19.30;99.90;;;19.67;82.62;100727.09;4939019;29;20078;-69
2021/07/28 09:08:32;;;;;;;8.80;5.78;;;19.40;99.90;;;19.69;83.01;100730.56;4938454;29;20048;-68
2021/07/28 09:11:03;;;;;;;;;;;19.40;99.90;;;19.55;82.35;100719.59;4938458;29;20560;-66
2021/07/28 09:13:35;;;;;;;4.13;3.92;;;19.30;99.90;;;19.57;82.55;100728.41;4938658;29;19923;-76
2021/07/28 09:16:06;;;;;;;4.43;4.18;;;19.30;99.90;;;19.55;82.75;100719.59;4921724;29;20410;-71
2021/07/28 09:18:37;;;;;;;;;;;19.30;99.90;;;19.50;83.14;100725.16;4939270;29;20048;-71
2021/07/28 09:21:25;;;;;;;3.22;3.08;;;19.20;99.90;;;19.62;82.55;100737.16;4938661;29;19930;-71
2021/07/28 09:24:07;;;;;;;3.58;3.38;;;19.30;99.90;;;19.77;82.98;100741.84;4938464;29;20051;-66
2021/07/28 09:26:42;;;;;;;3.97;3.78;;;19.40;99.90;;;19.65;82.01;100729.84;4921388;29;20052;-68
2021/07/28 09:29:13;;;;;;;3.80;3.60;;;19.40;99.90;;;19.71;82.22;100744.78;4921616;29;20083;-69
2021/07/28 09:31:43;;;;;;;5.60;5.10;;;19.40;99.90;;;19.73;82.10;100724.13;4938441;29;20063;-69
2021/07/28 09:34:33;;;;;;;;;;;19.40;99.90;;;19.64;81.53;100733.47;4921278;29;20047;-69
2021/07/28 09:37:07;;;;;;;4.97;4.57;;;19.40;99.90;;;19.55;81.22;100715.06;4937889;29;19923;-68
2021/07/28 09:39:38;;;;;;;3.85;3.65;;;19.30;99.90;;;19.71;81.73;100720.63;4938401;29;20056;-70
2021/07/28 09:42:11;;;;;;;;;;;19.40;99.90;;;19.88;82.08;100726.13;4938185;29;20462;-70
2021/07/28 09:44:42;;;;;;;3.15;3.05;;;19.50;99.90;;;20.07;82.19;100734.25;4921065;29;19923;-69
2021/07/28 09:47:15;;;;;;;4.13;3.90;;;19.70;99.90;;;20.22;81.64;100745.19;4921093;29;20058;-69
2021/07/28 09:49:47;;;;;;;3.80;3.60;;;19.90;99.90;;;20.09;80.13;100709.03;4937976;29;20051;-71
2021/07/28 09:52:26;;;;;;;4.47;4.15;;;19.90;99.90;;;20.09;80.20;100733.22;4920415;29;20056;-68
2021/07/28 09:54:57;;;;;;;3.88;3.67;;;19.80;99.90;;;20.07;79.96;100728.88;4920828;29;20485;-69
2021/07/28 09:57:27;;;;;;;3.30;3.15;;;19.80;99.90;;;20.19;80.43;100742.63;4937713;29;20075;-69
2021/07/28 10:00:03;;;;;;;4.88;4.55;;;19.90;99.90;;;20.12;79.95;100730.41;4937782;29;20077;-68
2021/07/28 10:02:34;;;;;;;3.63;3.40;;;19.90;99.90;;;20.23;80.40;100737.97;4937687;29;20086;-71
2021/07/28 10:05:09;;;;;;;3.85;3.55;;;19.90;99.90;;;20.25;79.46;100741.47;4937654;29;20047;-68
2021/07/28 10:07:37;;;;;;;3.08;2.88;;;20.00;99.90;;;20.35;79.66;100751.75;4937598;29;20044;-69
2021/07/28 10:10:10;;;;;;;5.55;4.18;;;20.00;99.90;;;20.38;79.30;100729.25;4920391;29;20498;-68
2021/07/28 10:12:41;;;;;;;3.03;2.90;;;20.10;99.90;;;20.48;78.93;100747.53;4937271;29;20071;-72
2021/07/28 10:15:11;;;;;;;4.75;3.70;;;20.20;99.90;;;20.50;78.84;100760.88;4937738;29;20055;-67
2021/07/28 10:17:41;;;;;;;4.10;3.35;;;20.30;99.90;;;20.57;78.88;100741.75;4937040;29;20383;-72
2021/07/28 10:20:13;;;;;;;4.20;3.80;;;20.30;99.90;;;20.37;77.21;100714.03;4937268;29;20115;-74
2021/07/28 10:22:44;;;;;;;3.80;3.60;;;20.20;99.90;;;20.51;77.87;100733.97;4936832;29;20102;-71
2021/07/28 10:25:15;;;;;;;4.10;3.90;;;20.30;99.90;;;20.58;77.89;100727.34;4937295;29;20099;-71